Time;durP1;ratioP1;P1;durP2;ratioP2;P2;SDS_P1;SDS_P2;PMS_P1;PMS_P2;Temp;Humidity;BMP_temperature;BMP_pressure;BME280_temperature;BME280_humidity;BME280_pressure;Samples;Min_cycle;Max_cycle;Signal;HPM_P1;HPM_P2
2023/12/12 00:04:12;;;;;;;9.43;2.22;;;;;;;;;;10600632;27;20046;-72
2023/12/12 00:09:16;;;;;;;8.85;2.50;;;;;;;;;;10608292;27;20127;-72
2023/12/12 00:14:19;;;;;;;14.00;2.78;;;;;;;;;;10603892;28;20137;-72
2023/12/12 00:19:23;;;;;;;15.02;3.40;;;;;;;;;;10600271;28;20039;-72
2023/12/12 00:24:26;;;;;;;11.60;3.20;;;;;;;;;;10582340;28;20043;-72
2023/12/12 00:29:31;;;;;;;10.02;2.92;;;;;;;;;;10597071;28;20122;-72
2023/12/12 00:34:37;;;;;;;15.00;3.38;;;;;;;;;;10609682;28;20050;-72
2023/12/12 00:39:41;;;;;;;7.93;2.35;;;;;;;;;;10602302;28;20186;-72
2023/12/12 00:44:44;;;;;;;9.02;2.40;;;;;;;;;;10601255;27;20045;-72
2023/12/12 00:49:49;;;;;;;10.15;3.45;;;;;;;;;;10598052;27;20047;-72
2023/12/12 00:54:52;;;;;;;13.15;3.10;;;;;;;;;;10610483;27;20051;-72
2023/12/12 00:59:55;;;;;;;8.25;2.58;;;;;;;;;;10615876;27;20410;-72
2023/12/12 01:05:00;;;;;;;13.35;3.25;;;;;;;;;;10616102;27;20041;-72
2023/12/12 01:10:04;;;;;;;9.23;2.25;;;;;;;;;;10608981;27;20495;-72
2023/12/12 01:15:09;;;;;;;10.77;2.70;;;;;;;;;;10611946;27;20472;-72
2023/12/12 01:20:13;;;;;;;7.85;2.17;;;;;;;;;;10604157;27;20574;-72
2023/12/12 01:25:17;;;;;;;6.63;2.17;;;;;;;;;;10611994;27;20047;-72
2023/12/12 01:30:20;;;;;;;5.00;1.60;;;;;;;;;;10614992;27;20075;-72
2023/12/12 01:35:24;;;;;;;4.90;1.50;;;;;;;;;;10608309;27;20047;-72
2023/12/12 01:40:28;;;;;;;4.57;1.77;;;;;;;;;;10609775;27;20657;-72
2023/12/12 01:45:31;;;;;;;5.20;1.50;;;;;;;;;;10611982;27;20039;-72
2023/12/12 01:50:35;;;;;;;3.88;1.40;;;;;;;;;;10610766;27;20522;-72
2023/12/12 01:55:39;;;;;;;5.13;1.52;;;;;;;;;;10595648;27;20047;-72
2023/12/12 02:00:42;;;;;;;3.58;1.48;;;;;;;;;;10583710;27;20139;-72
2023/12/12 02:05:48;;;;;;;6.70;1.67;;;;;;;;;;10602678;27;20453;-72
2023/12/12 02:10:52;;;;;;;4.60;1.45;;;;;;;;;;10584535;27;20043;-72
2023/12/12 02:15:55;;;;;;;5.10;1.70;;;;;;;;;;10607483;27;20774;-72
2023/12/12 02:21:00;;;;;;;8.32;2.20;;;;;;;;;;10603297;27;20040;-72
2023/12/12 02:26:05;;;;;;;6.10;1.50;;;;;;;;;;10592186;27;20126;-72
2023/12/12 02:31:09;;;;;;;5.97;1.50;;;;;;;;;;10608639;27;20045;-72
2023/12/12 02:36:12;;;;;;;8.63;1.75;;;;;;;;;;10594778;27;20127;-72
2023/12/12 02:41:18;;;;;;;5.00;1.45;;;;;;;;;;10605832;27;20031;-72
2023/12/12 02:46:21;;;;;;;6.50;1.60;;;;;;;;;;10609102;27;20742;-72
2023/12/12 02:51:24;;;;;;;4.57;1.60;;;;;;;;;;10609368;27;20134;-72
2023/12/12 02:56:32;;;;;;;5.43;1.42;;;;;;;;;;10605867;27;20063;-72
2023/12/12 03:01:36;;;;;;;4.28;1.58;;;;;;;;;;10611013;27;20335;-72
2023/12/12 03:06:39;;;;;;;7.20;1.90;;;;;;;;;;10607373;27;20074;-72
2023/12/12 03:11:45;;;;;;;4.88;1.55;;;;;;;;;;10606697;27;20459;-72
2023/12/12 03:16:49;;;;;;;5.50;1.63;;;;;;;;;;10606114;27;20440;-72
2023/12/12 03:21:52;;;;;;;6.90;1.60;;;;;;;;;;10599251;27;20027;-72
2023/12/12 03:26:57;;;;;;;5.07;1.83;;;;;;;;;;10608249;27;20051;-72
2023/12/12 03:32:00;;;;;;;4.80;1.95;;;;;;;;;;10617641;27;20115;-72
2023/12/12 03:37:03;;;;;;;6.78;1.83;;;;;;;;;;10608687;27;20403;-72
2023/12/12 03:42:09;;;;;;;6.32;1.35;;;;;;;;;;10607954;27;20047;-72
2023/12/12 03:47:12;;;;;;;6.53;1.80;;;;;;;;;;10599700;27;20118;-72
2023/12/12 03:52:15;;;;;;;8.00;2.10;;;;;;;;;;10610692;27;20050;-72
2023/12/12 03:57:20;;;;;;;4.15;1.35;;;;;;;;;;10610741;27;20138;-72
2023/12/12 04:02:23;;;;;;;8.90;2.22;;;;;;;;;;10607168;27;20721;-72
2023/12/12 04:07:26;;;;;;;5.07;1.30;;;;;;;;;;10596468;27;20554;-72
2023/12/12 04:12:31;;;;;;;5.50;1.75;;;;;;;;;;10612006;27;20377;-72
2023/12/12 04:17:34;;;;;;;5.13;1.67;;;;;;;;;;10600092;27;20427;-72
2023/12/12 04:22:37;;;;;;;10.32;2.10;;;;;;;;;;10598701;27;20043;-72
2023/12/12 04:27:42;;;;;;;6.47;1.40;;;;;;;;;;10612562;28;20513;-72
2023/12/12 04:32:45;;;;;;;3.42;1.15;;;;;;;;;;10598011;28;20043;-72
2023/12/12 04:37:49;;;;;;;4.15;1.65;;;;;;;;;;10602743;28;20071;-72
2023/12/12 04:42:53;;;;;;;5.18;1.48;;;;;;;;;;10605793;28;20041;-72
2023/12/12 04:47:56;;;;;;;5.72;1.23;;;;;;;;;;10607484;28;20417;-72
2023/12/12 04:53:00;;;;;;;4.00;1.27;;;;;;;;;;10612752;28;20039;-72
2023/12/12 04:58:04;;;;;;;4.47;1.58;;;;;;;;;;10604140;28;20263;-72
2023/12/12 05:03:08;;;;;;;6.07;1.60;;;;;;;;;;10613037;28;20041;-72
2023/12/12 05:08:11;;;;;;;5.40;1.50;;;;;;;;;;10606863;28;20042;-72
2023/12/12 05:13:17;;;;;;;5.90;1.80;;;;;;;;;;10611691;27;20037;-72
2023/12/12 05:18:21;;;;;;;4.30;1.17;;;;;;;;;;10593872;28;20047;-72
2023/12/12 05:23:25;;;;;;;4.75;1.27;;;;;;;;;;10567299;28;20480;-72
2023/12/12 05:28:30;;;;;;;3.80;1.27;;;;;;;;;;10605784;28;20062;-74
2023/12/12 05:33:34;;;;;;;4.53;1.33;;;;;;;;;;10598644;27;20031;-73
2023/12/12 05:38:37;;;;;;;8.00;2.00;;;;;;;;;;10607473;27;20061;-73
2023/12/12 05:43:43;;;;;;;4.65;1.90;;;;;;;;;;10599721;27;20035;-73
2023/12/12 05:48:46;;;;;;;5.57;1.50;;;;;;;;;;10607249;27;20508;-73
2023/12/12 05:53:49;;;;;;;5.93;1.45;;;;;;;;;;10618663;22;20512;-72
2023/12/12 05:58:54;;;;;;;5.03;1.52;;;;;;;;;;10574419;28;20133;-72
2023/12/12 06:03:57;;;;;;;2.83;1.30;;;;;;;;;;10574833;28;20431;-72
2023/12/12 06:09:02;;;;;;;10.02;2.17;;;;;;;;;;10577273;28;20073;-72
2023/12/12 06:14:07;;;;;;;11.68;2.70;;;;;;;;;;10583841;27;20354;-72
2023/12/12 06:19:10;;;;;;;5.70;2.25;;;;;;;;;;10580043;28;20039;-72
2023/12/12 06:24:14;;;;;;;6.00;2.40;;;;;;;;;;10578065;28;20067;-72
2023/12/12 06:29:18;;;;;;;5.13;1.70;;;;;;;;;;10574614;28;20052;-72
2023/12/12 06:34:22;;;;;;;4.53;1.83;;;;;;;;;;10566020;27;20039;-72
2023/12/12 06:39:25;;;;;;;5.60;2.17;;;;;;;;;;10568470;28;20480;-72
2023/12/12 06:44:30;;;;;;;6.78;2.60;;;;;;;;;;10574573;28;20656;-72
2023/12/12 06:49:33;;;;;;;6.70;1.92;;;;;;;;;;10573348;28;20062;-72
2023/12/12 06:54:36;;;;;;;3.75;1.75;;;;;;;;;;10587009;27;20038;-72
2023/12/12 06:59:43;;;;;;;5.10;1.30;;;;;;;;;;10620829;27;20098;-72
2023/12/12 07:04:47;;;;;;;6.05;2.05;;;;;;;;;;10624089;27;20453;-72
2023/12/12 07:09:51;;;;;;;8.18;2.38;;;;;;;;;;10628132;27;20106;-72
2023/12/12 07:14:55;;;;;;;5.03;1.65;;;;;;;;;;10604480;27;20532;-72
2023/12/12 07:19:59;;;;;;;7.40;2.38;;;;;;;;;;10617504;27;20045;-72
2023/12/12 07:25:04;;;;;;;4.65;1.73;;;;;;;;;;10624170;27;20050;-72
2023/12/12 07:30:11;;;;;;;4.80;1.85;;;;;;;;;;10621314;27;20051;-72
2023/12/12 07:35:16;;;;;;;7.00;2.13;;;;;;;;;;10617999;27;20050;-72
2023/12/12 07:40:19;;;;;;;3.95;1.67;;;;;;;;;;10630185;27;20067;-72
2023/12/12 07:45:24;;;;;;;5.70;1.90;;;;;;;;;;10623943;27;20039;-72
2023/12/12 07:50:28;;;;;;;7.03;1.75;;;;;;;;;;10626179;27;20031;-72
2023/12/12 07:55:31;;;;;;;5.15;1.77;;;;;;;;;;10631257;27;20521;-72
2023/12/12 08:00:36;;;;;;;5.45;2.08;;;;;;;;;;10632611;27;20043;-72
2023/12/12 08:05:39;;;;;;;8.55;3.42;;;;;;;;;;10632265;27;20133;-72
2023/12/12 08:10:42;;;;;;;11.80;2.92;;;;;;;;;;10635934;27;20130;-72
2023/12/12 08:15:47;;;;;;;8.85;3.50;;;;;;;;;;10626450;27;20038;-72
2023/12/12 08:20:50;;;;;;;6.38;3.65;;;;;;;;;;10643463;27;20119;-72
2023/12/12 08:25:54;;;;;;;7.75;2.58;;;;;;;;;;10638014;27;20042;-72
2023/12/12 08:30:58;;;;;;;5.65;2.17;;;;;;;;;;10628016;27;20028;-72
2023/12/12 08:36:02;;;;;;;9.25;3.10;;;;;;;;;;10633080;27;20051;-72
2023/12/12 08:41:06;;;;;;;10.05;4.78;;;;;;;;;;10624578;27;20041;-72
2023/12/12 08:46:12;;;;;;;7.03;3.47;;;;;;;;;;10628149;27;20406;-72
2023/12/12 08:51:16;;;;;;;5.82;3.03;;;;;;;;;;10631212;27;20408;-73
2023/12/12 08:56:20;;;;;;;8.95;3.10;;;;;;;;;;10632388;27;20133;-72
2023/12/12 09:01:24;;;;;;;6.72;3.13;;;;;;;;;;10626627;27;20125;-72
2023/12/12 09:06:28;;;;;;;7.63;3.03;;;;;;;;;;10611819;27;20096;-72
2023/12/12 09:11:33;;;;;;;3.97;2.38;;;;;;;;;;10617340;27;20125;-72
2023/12/12 09:16:37;;;;;;;6.03;2.38;;;;;;;;;;10638374;27;20080;-72
2023/12/12 09:21:41;;;;;;;7.13;2.15;;;;;;;;;;10648733;27;20042;-72
2023/12/12 09:26:45;;;;;;;7.38;3.17;;;;;;;;;;10640081;27;20073;-72
2023/12/12 09:31:50;;;;;;;8.27;2.65;;;;;;;;;;10633185;27;20038;-72
2023/12/12 09:36:53;;;;;;;5.57;1.88;;;;;;;;;;10639350;27;20126;-72
2023/12/12 09:42:00;;;;;;;4.32;1.70;;;;;;;;;;10635614;27;20084;-72
2023/12/12 09:47:07;;;;;;;7.97;2.10;;;;;;;;;;10633322;27;20065;-72
2023/12/12 09:52:10;;;;;;;6.00;2.03;;;;;;;;;;10645643;27;20125;-73
2023/12/12 09:57:17;;;;;;;7.57;2.10;;;;;;;;;;10634165;27;20047;-72
2023/12/12 10:02:25;;;;;;;8.73;3.28;;;;;;;;;;10614738;27;20055;-72
2023/12/12 10:07:29;;;;;;;12.55;3.05;;;;;;;;;;10632183;27;20107;-72
2023/12/12 10:12:33;;;;;;;4.68;1.85;;;;;;;;;;10615669;27;20042;-72
2023/12/12 10:17:40;;;;;;;7.07;1.70;;;;;;;;;;10633332;27;20038;-72
2023/12/12 10:22:46;;;;;;;8.88;2.67;;;;;;;;;;10633131;27;20566;-72
2023/12/12 10:27:52;;;;;;;5.28;2.00;;;;;;;;;;10639418;27;20745;-72
2023/12/12 10:32:57;;;;;;;;;;;;;;;;;;10641903;27;20066;-72
2023/12/12 10:38:09;;;;;;;7.40;2.10;;;;;;;;;;10636024;27;20023;-72
2023/12/12 10:43:14;;;;;;;5.72;2.08;;;;;;;;;;10638131;27;20122;-72
2023/12/12 10:48:21;;;;;;;8.05;2.55;;;;;;;;;;10644812;27;20054;-72
2023/12/12 10:53:26;;;;;;;4.63;1.75;;;;;;;;;;10645966;27;20127;-72
2023/12/12 10:58:29;;;;;;;8.45;2.97;;;;;;;;;;10640150;27;20043;-72
2023/12/12 11:03:36;;;;;;;8.82;2.63;;;;;;;;;;10638094;27;20043;-72
2023/12/12 11:08:42;;;;;;;6.97;2.58;;;;;;;;;;10635826;27;20039;-72
2023/12/12 11:13:46;;;;;;;6.30;2.28;;;;;;;;;;10635154;27;20089;-72
2023/12/12 11:18:53;;;;;;;8.45;2.42;;;;;;;;;;10647278;27;20088;-72
2023/12/12 11:23:56;;;;;;;5.05;2.60;;;;;;;;;;10635075;27;20062;-72
2023/12/12 11:28:59;;;;;;;5.75;2.20;;;;;;;;;;10634391;27;20383;-72
2023/12/12 11:34:06;;;;;;;5.65;1.83;;;;;;;;;;10636596;27;20045;-72
2023/12/12 11:39:11;;;;;;;4.85;2.05;;;;;;;;;;10639373;27;20472;-72
2023/12/12 11:44:18;;;;;;;4.50;1.42;;;;;;;;;;10634367;27;20042;-72
2023/12/12 11:49:24;;;;;;;4.18;1.73;;;;;;;;;;10622117;27;20043;-72
2023/12/12 11:54:27;;;;;;;;;;;;;;;;;;10619589;22;20426;-74
2023/12/12 11:59:33;;;;;;;3.65;0.88;;;;;;;;;;10518706;28;20361;-75
2023/12/12 12:04:38;;;;;;;1.30;0.75;;;;;;;;;;10494231;28;20036;-75
2023/12/12 12:09:42;;;;;;;1.95;0.80;;;;;;;;;;10504459;28;20686;-75
2023/12/12 12:14:45;;;;;;;1.75;0.80;;;;;;;;;;10526530;28;20076;-75
2023/12/12 12:19:57;;;;;;;1.10;0.68;;;;;;;;;;10520480;28;20043;-75
2023/12/12 12:25:01;;;;;;;2.25;0.70;;;;;;;;;;10506246;28;20056;-75
2023/12/12 12:30:09;;;;;;;0.90;0.45;;;;;;;;;;10531938;28;20070;-75
2023/12/12 12:35:32;;;;;;;1.02;0.43;;;;;;;;;;10532288;28;20047;-75
2023/12/12 12:40:38;;;;;;;0.93;0.50;;;;;;;;;;10527774;28;20044;-75
2023/12/12 12:45:45;;;;;;;;;;;;;;;;;;10520123;28;20126;-75
2023/12/12 12:50:53;;;;;;;0.50;0.40;;;;;;;;;;10528547;28;19919;-75
2023/12/12 12:55:56;;;;;;;0.57;0.50;;;;;;;;;;10520665;28;20041;-75
2023/12/12 13:00:59;;;;;;;0.50;0.40;;;;;;;;;;10523849;28;20036;-75
2023/12/12 13:06:05;;;;;;;0.70;0.45;;;;;;;;;;10531220;28;20048;-75
2023/12/12 13:11:09;;;;;;;0.50;0.40;;;;;;;;;;10531022;28;20044;-75
2023/12/12 13:16:14;;;;;;;0.70;0.47;;;;;;;;;;10532166;28;20530;-75
2023/12/12 13:21:19;;;;;;;0.65;0.52;;;;;;;;;;10531548;28;20153;-75
2023/12/12 13:26:22;;;;;;;0.40;0.40;;;;;;;;;;10523631;28;20039;-75
2023/12/12 13:31:26;;;;;;;0.30;0.30;;;;;;;;;;10532005;28;20036;-75
2023/12/12 13:36:30;;;;;;;0.60;0.60;;;;;;;;;;10529615;28;20408;-75
2023/12/12 13:41:34;;;;;;;0.60;0.50;;;;;;;;;;10528588;28;20043;-75
2023/12/12 13:46:37;;;;;;;0.30;0.30;;;;;;;;;;10529508;28;20043;-75
2023/12/12 13:51:42;;;;;;;0.63;0.22;;;;;;;;;;10523740;28;20467;-74
2023/12/12 13:56:45;;;;;;;0.50;0.50;;;;;;;;;;10528534;28;20040;-74
2023/12/12 14:01:49;;;;;;;1.20;0.47;;;;;;;;;;10528746;28;20666;-75
2023/12/12 14:06:53;;;;;;;0.63;0.50;;;;;;;;;;10508902;28;20040;-75
2023/12/12 14:11:57;;;;;;;0.65;0.50;;;;;;;;;;10522699;28;20400;-75
2023/12/12 14:17:00;;;;;;;1.00;0.77;;;;;;;;;;10527113;28;20042;-75
2023/12/12 14:22:05;;;;;;;0.90;0.50;;;;;;;;;;10528904;28;20570;-75
2023/12/12 14:27:08;;;;;;;0.40;0.40;;;;;;;;;;10524921;28;20048;-75
2023/12/12 14:32:11;;;;;;;0.50;0.50;;;;;;;;;;10522681;28;20056;-75
2023/12/12 14:37:16;;;;;;;0.50;0.43;;;;;;;;;;10518444;28;20123;-75
2023/12/12 14:42:19;;;;;;;0.40;0.40;;;;;;;;;;10528555;28;20051;-74
2023/12/12 14:47:23;;;;;;;0.50;0.47;;;;;;;;;;10515633;28;20040;-74
2023/12/12 14:52:27;;;;;;;0.60;0.60;;;;;;;;;;10528317;28;20054;-74
2023/12/12 14:57:30;;;;;;;0.70;0.70;;;;;;;;;;10529858;28;20071;-74
2023/12/12 15:02:35;;;;;;;0.50;0.50;;;;;;;;;;10523746;28;20044;-74
2023/12/12 15:07:42;;;;;;;0.80;0.80;;;;;;;;;;10509447;28;20037;-74
2023/12/12 15:12:45;;;;;;;0.50;0.50;;;;;;;;;;10515654;28;20048;-74
2023/12/12 15:17:50;;;;;;;0.55;0.50;;;;;;;;;;10514723;28;20559;-75
2023/12/12 15:22:55;;;;;;;0.47;0.47;;;;;;;;;;10525916;28;20489;-74
2023/12/12 15:27:58;;;;;;;3.55;1.88;;;;;;;;;;10527587;28;20036;-74
2023/12/12 15:33:01;;;;;;;2.10;1.27;;;;;;;;;;10531534;28;20044;-74
2023/12/12 15:38:06;;;;;;;1.45;1.30;;;;;;;;;;10521445;28;20038;-74
2023/12/12 15:43:11;;;;;;;1.70;1.20;;;;;;;;;;10526364;28;20040;-74
2023/12/12 15:48:14;;;;;;;1.02;0.93;;;;;;;;;;10514491;28;20044;-74
2023/12/12 15:53:19;;;;;;;0.98;0.85;;;;;;;;;;10513891;28;20052;-75
2023/12/12 15:58:22;;;;;;;1.02;0.63;;;;;;;;;;10527450;28;20052;-74
2023/12/12 16:03:25;;;;;;;0.90;0.70;;;;;;;;;;10525347;28;20077;-74
2023/12/12 16:08:32;;;;;;;1.20;1.10;;;;;;;;;;10520612;28;21435;-75
2023/12/12 16:13:36;;;;;;;0.60;0.60;;;;;;;;;;10521944;28;20049;-74
2023/12/12 16:18:39;;;;;;;1.45;1.35;;;;;;;;;;10523220;28;20068;-75
2023/12/12 16:23:44;;;;;;;1.58;1.40;;;;;;;;;;10525022;28;20040;-75
2023/12/12 16:28:48;;;;;;;1.35;1.25;;;;;;;;;;10515220;28;20503;-75
2023/12/12 16:33:51;;;;;;;1.50;1.40;;;;;;;;;;10522193;28;20067;-75
2023/12/12 16:39:00;;;;;;;1.58;1.48;;;;;;;;;;10517059;28;20344;-74
2023/12/12 16:44:04;;;;;;;1.42;1.33;;;;;;;;;;10497277;28;21255;-74
2023/12/12 16:49:07;;;;;;;1.30;1.20;;;;;;;;;;10508164;28;20120;-74
2023/12/12 16:54:12;;;;;;;1.23;1.13;;;;;;;;;;10504119;28;20173;-74
2023/12/12 16:59:17;;;;;;;2.30;2.08;;;;;;;;;;10517926;28;20054;-75
2023/12/12 17:04:20;;;;;;;2.22;1.95;;;;;;;;;;10486844;28;20045;-75
2023/12/12 17:09:25;;;;;;;2.53;2.20;;;;;;;;;;10495732;28;20523;-74
2023/12/12 17:14:28;;;;;;;2.30;1.90;;;;;;;;;;10512656;28;20037;-75
2023/12/12 17:19:32;;;;;;;2.28;1.98;;;;;;;;;;10510415;28;20542;-75
2023/12/12 17:24:41;;;;;;;3.38;2.67;;;;;;;;;;10516449;28;20075;-74
2023/12/12 17:29:47;;;;;;;2.60;1.98;;;;;;;;;;10522991;28;20137;-75
2023/12/12 17:34:51;;;;;;;3.13;2.28;;;;;;;;;;10517767;28;20447;-75
2023/12/12 17:39:55;;;;;;;2.50;2.10;;;;;;;;;;10524481;28;20075;-74
2023/12/12 17:44:59;;;;;;;2.83;2.10;;;;;;;;;;10526657;28;20136;-75
2023/12/12 17:50:04;;;;;;;2.00;1.52;;;;;;;;;;10522208;28;20556;-74
2023/12/12 17:55:09;;;;;;;3.05;2.28;;;;;;;;;;10564180;22;20051;-73
2023/12/12 18:00:13;;;;;;;1.88;1.55;;;;;;;;;;10576319;27;20056;-73
2023/12/12 18:05:17;;;;;;;1.63;1.48;;;;;;;;;;10575552;27;20126;-73
2023/12/12 18:10:22;;;;;;;2.53;2.33;;;;;;;;;;10572700;28;20040;-73
2023/12/12 18:15:26;;;;;;;2.55;2.00;;;;;;;;;;10575809;28;20103;-74
2023/12/12 18:20:29;;;;;;;1.88;1.60;;;;;;;;;;10574312;28;20043;-73
2023/12/12 18:25:39;;;;;;;1.52;1.23;;;;;;;;;;10576635;27;20158;-73
2023/12/12 18:30:46;;;;;;;1.40;1.30;;;;;;;;;;10577012;27;20071;-73
2023/12/12 18:35:50;;;;;;;3.08;2.35;;;;;;;;;;10570763;28;20763;-74
2023/12/12 18:40:55;;;;;;;2.00;1.73;;;;;;;;;;10553972;28;20043;-73
2023/12/12 18:45:59;;;;;;;2.63;2.28;;;;;;;;;;10573526;28;20039;-73
2023/12/12 18:51:02;;;;;;;2.20;2.00;;;;;;;;;;10570177;27;20047;-73
2023/12/12 18:56:10;;;;;;;3.45;2.38;;;;;;;;;;10556750;28;20090;-74
2023/12/12 19:01:16;;;;;;;2.78;1.90;;;;;;;;;;10574626;28;20040;-74
2023/12/12 19:06:19;;;;;;;2.53;2.15;;;;;;;;;;10556920;28;20062;-73
2023/12/12 19:11:25;;;;;;;5.18;3.75;;;;;;;;;;10574297;28;20036;-73
2023/12/12 19:16:32;;;;;;;6.85;4.10;;;;;;;;;;10572782;28;20122;-73
2023/12/12 19:21:36;;;;;;;4.50;3.00;;;;;;;;;;10573134;28;20551;-73
2023/12/12 19:26:40;;;;;;;2.95;1.50;;;;;;;;;;10573787;28;20039;-73
2023/12/12 19:31:44;;;;;;;1.63;1.30;;;;;;;;;;10572404;28;20039;-73
2023/12/12 19:36:47;;;;;;;2.72;1.38;;;;;;;;;;10572127;28;20039;-73
2023/12/12 19:41:52;;;;;;;2.17;1.23;;;;;;;;;;10571588;28;20039;-73
2023/12/12 19:46:56;;;;;;;2.70;1.60;;;;;;;;;;10571584;27;20051;-73
2023/12/12 19:52:02;;;;;;;3.85;1.48;;;;;;;;;;10571283;28;20051;-73
2023/12/12 19:57:07;;;;;;;3.05;1.98;;;;;;;;;;10582682;27;20043;-73
2023/12/12 20:02:11;;;;;;;2.93;1.30;;;;;;;;;;10576775;27;20047;-74
2023/12/12 20:07:14;;;;;;;2.25;1.30;;;;;;;;;;10571591;28;20035;-73
2023/12/12 20:12:19;;;;;;;1.90;1.30;;;;;;;;;;10571197;28;20071;-73
2023/12/12 20:17:23;;;;;;;3.80;1.80;;;;;;;;;;10568143;28;20046;-73
2023/12/12 20:22:27;;;;;;;3.45;1.92;;;;;;;;;;10569454;28;20046;-73
2023/12/12 20:27:36;;;;;;;3.45;2.30;;;;;;;;;;10570846;28;20062;-73
2023/12/12 20:32:40;;;;;;;2.13;1.42;;;;;;;;;;10572179;28;20819;-73
2023/12/12 20:37:43;;;;;;;2.75;1.38;;;;;;;;;;10571478;28;20036;-73
2023/12/12 20:42:48;;;;;;;2.15;1.55;;;;;;;;;;10583225;28;20454;-73
2023/12/12 20:47:52;;;;;;;2.58;1.70;;;;;;;;;;10580148;28;20042;-73
2023/12/12 20:52:55;;;;;;;1.45;1.25;;;;;;;;;;10553035;28;20382;-73
2023/12/12 20:58:00;;;;;;;2.50;1.20;;;;;;;;;;10578043;27;20679;-73
2023/12/12 21:03:03;;;;;;;1.33;1.00;;;;;;;;;;10573354;28;20114;-73
2023/12/12 21:08:06;;;;;;;1.08;0.80;;;;;;;;;;10578071;28;20044;-73
2023/12/12 21:13:13;;;;;;;0.68;0.50;;;;;;;;;;10575603;27;20054;-73
2023/12/12 21:18:16;;;;;;;0.70;0.60;;;;;;;;;;10578230;28;20039;-73
2023/12/12 21:23:23;;;;;;;1.15;0.60;;;;;;;;;;10596866;27;20065;-73
2023/12/12 21:28:28;;;;;;;0.82;0.40;;;;;;;;;;10577152;28;20042;-73
2023/12/12 21:33:31;;;;;;;1.33;0.47;;;;;;;;;;10573456;28;20039;-73
2023/12/12 21:38:34;;;;;;;0.93;0.47;;;;;;;;;;10573993;28;20073;-73
2023/12/12 21:43:39;;;;;;;1.27;0.80;;;;;;;;;;10576322;28;20119;-73
2023/12/12 21:48:42;;;;;;;0.88;0.70;;;;;;;;;;10575616;28;20028;-73
2023/12/12 21:53:45;;;;;;;0.50;0.50;;;;;;;;;;10559403;28;20039;-73
2023/12/12 21:58:50;;;;;;;0.85;0.40;;;;;;;;;;10574794;28;20042;-73
2023/12/12 22:03:55;;;;;;;2.75;0.90;;;;;;;;;;10574326;27;20046;-73
2023/12/12 22:08:58;;;;;;;1.77;1.10;;;;;;;;;;10548346;28;20052;-73
2023/12/12 22:14:04;;;;;;;1.13;0.80;;;;;;;;;;10574772;28;20126;-73
2023/12/12 22:19:07;;;;;;;1.73;1.10;;;;;;;;;;10574573;28;20100;-73
2023/12/12 22:24:11;;;;;;;2.53;1.45;;;;;;;;;;10568782;28;20066;-73
2023/12/12 22:29:15;;;;;;;1.67;0.95;;;;;;;;;;10552927;28;20047;-73
2023/12/12 22:34:19;;;;;;;3.03;1.40;;;;;;;;;;10576751;27;20170;-73
2023/12/12 22:39:22;;;;;;;1.75;1.10;;;;;;;;;;10567566;27;20385;-73
2023/12/12 22:44:27;;;;;;;3.13;1.83;;;;;;;;;;10570331;28;20046;-73
2023/12/12 22:49:30;;;;;;;1.20;1.00;;;;;;;;;;10580812;27;20522;-73
2023/12/12 22:54:33;;;;;;;1.98;1.05;;;;;;;;;;10572750;28;20064;-73
2023/12/12 22:59:38;;;;;;;0.82;0.70;;;;;;;;;;10573241;28;20044;-73
2023/12/12 23:04:41;;;;;;;1.30;0.50;;;;;;;;;;10574347;28;20038;-73
2023/12/12 23:09:45;;;;;;;1.23;0.52;;;;;;;;;;10570503;27;20130;-74
2023/12/12 23:14:49;;;;;;;2.40;0.63;;;;;;;;;;10574038;28;20400;-74
2023/12/12 23:19:52;;;;;;;1.52;0.50;;;;;;;;;;10554961;28;20080;-73
2023/12/12 23:24:56;;;;;;;1.70;0.50;;;;;;;;;;10573362;28;20039;-73
2023/12/12 23:30:00;;;;;;;0.82;0.40;;;;;;;;;;10572884;28;20122;-73
2023/12/12 23:35:05;;;;;;;0.70;0.45;;;;;;;;;;10572644;28;20079;-73
2023/12/12 23:40:09;;;;;;;1.60;0.70;;;;;;;;;;10571157;28;20124;-73
2023/12/12 23:45:15;;;;;;;1.08;0.45;;;;;;;;;;10572983;28;20465;-73
2023/12/12 23:50:22;;;;;;;0.30;0.30;;;;;;;;;;10568753;28;20396;-73
2023/12/12 23:55:25;;;;;;;0.40;0.40;;;;;;;;;;10572424;28;20383;-74
